createdAt,value
2018-08-30T00:00:29.506Z,14.4
2018-08-30T00:05:31.956Z,14.4
2018-08-30T00:10:34.501Z,14.4
2018-08-30T00:15:36.921Z,14.5
2018-08-30T00:20:39.484Z,14.5
2018-08-30T00:30:44.426Z,15
2018-08-30T00:35:46.915Z,15.2
2018-08-30T00:40:49.404Z,15.6
2018-08-30T00:45:51.769Z,15.6
2018-08-30T00:50:54.107Z,15.6
2018-08-30T00:55:56.545Z,15.5
2018-08-30T01:00:59.019Z,15.3
2018-08-30T01:06:01.712Z,15.3
2018-08-30T01:11:03.922Z,15.2
2018-08-30T01:16:06.382Z,15.2
2018-08-30T01:21:08.842Z,15
2018-08-30T01:26:11.557Z,14.9
2018-08-30T01:36:16.215Z,15.2
2018-08-30T01:41:18.895Z,15.2
2018-08-30T01:46:21.120Z,15.2
2018-08-30T01:51:23.640Z,15.2
2018-08-30T01:56:26.073Z,15.2
2018-08-30T02:01:28.505Z,15.2
2018-08-30T02:06:31.066Z,15.2
2018-08-30T02:11:33.487Z,15.2
2018-08-30T02:16:35.954Z,15.2
2018-08-30T02:21:38.487Z,15.5
2018-08-30T02:26:40.792Z,15.8
2018-08-30T02:31:43.268Z,16
2018-08-30T02:36:45.864Z,16.2
2018-08-30T02:41:48.164Z,16.5
2018-08-30T02:46:50.750Z,16.7
2018-08-30T02:51:53.071Z,16.9
2018-08-30T03:01:58.226Z,17.3
2018-08-30T03:07:00.820Z,17.3
2018-08-30T03:12:03.937Z,17.1
2018-08-30T03:17:05.796Z,17
2018-08-30T03:22:08.138Z,17.1
2018-08-30T03:27:11.434Z,17.3
2018-08-30T03:32:12.923Z,17.3
2018-08-30T03:37:15.208Z,17.4
2018-08-30T03:42:17.648Z,17.5
2018-08-30T03:47:20.415Z,17.5
2018-08-30T03:52:22.577Z,17.6
2018-08-30T03:57:25.116Z,17.8
2018-08-30T04:02:28.614Z,18.1
2018-08-30T04:07:30.058Z,18.3
2018-08-30T04:17:34.899Z,18.5
2018-08-30T04:22:37.329Z,18.5
2018-08-30T04:27:39.902Z,18.5
2018-08-30T04:32:42.243Z,18.6
2018-08-30T04:37:44.709Z,18.6
2018-08-30T04:42:47.221Z,18.5
2018-08-30T04:47:49.896Z,18.4
2018-08-30T04:52:52.092Z,18.4
2018-08-30T04:57:54.547Z,18.4
2018-08-30T05:02:57.096Z,18.3
2018-08-30T05:07:59.784Z,18.3
2018-08-30T05:13:02.018Z,18.3
2018-08-30T05:18:04.384Z,18.3
2018-08-30T05:23:06.908Z,18.3
2018-08-30T05:28:09.281Z,18.3
2018-08-30T05:33:11.740Z,18.3
2018-08-30T05:38:14.589Z,18.3
2018-08-30T05:43:16.757Z,18.3
2018-08-30T05:48:19.109Z,18.3
2018-08-30T05:53:21.587Z,18.3
2018-08-30T05:58:24.129Z,18.3
2018-08-30T06:03:26.494Z,18.3
2018-08-30T06:08:29.145Z,18.4
2018-08-30T06:13:31.453Z,18.6
2018-08-30T06:18:33.862Z,18.8
2018-08-30T06:23:36.329Z,19.1
2018-08-30T06:28:38.783Z,19.4
2018-08-30T06:33:41.257Z,19.6
2018-08-30T06:38:43.726Z,19.9
2018-08-30T06:43:46.195Z,19.8
2018-08-30T06:48:48.834Z,19.7
2018-08-30T06:53:51.087Z,19.7
2018-08-30T06:58:53.540Z,19.8
2018-08-30T07:03:56.130Z,20
2018-08-30T07:08:58.556Z,20.1
2018-08-30T07:14:00.908Z,20.4
2018-08-30T07:19:03.401Z,20.7
2018-08-30T07:24:05.878Z,21.2
2018-08-30T07:29:08.343Z,21.4
2018-08-30T07:34:11.165Z,21
2018-08-30T07:39:13.206Z,20.3
2018-08-30T07:44:15.824Z,19.7
2018-08-30T07:49:18.185Z,19.2
2018-08-30T07:54:20.657Z,18.9
2018-08-30T07:59:23.106Z,18.8
2018-08-30T08:04:25.648Z,18.7
2018-08-30T08:09:28.125Z,18.7
2018-08-30T08:14:30.501Z,18.6
2018-08-30T08:19:32.937Z,18.5
2018-08-30T08:24:35.343Z,18.5
2018-08-30T08:29:38.391Z,18.3
2018-08-30T08:34:40.712Z,18.2
2018-08-30T08:44:45.323Z,17.8
2018-08-30T08:49:47.710Z,17.7
2018-08-30T08:54:50.128Z,17.8
2018-08-30T08:59:52.560Z,17.9
2018-08-30T09:04:55.119Z,18
2018-08-30T09:09:57.465Z,18.2
2018-08-30T09:20:02.385Z,18.4
2018-08-30T09:25:04.825Z,18.5
2018-08-30T09:30:07.334Z,18.5
2018-08-30T09:35:09.767Z,18.5
2018-08-30T09:40:13.154Z,18.5
2018-08-30T09:45:14.720Z,18.6
2018-08-30T09:50:17.349Z,18.6
2018-08-30T09:55:19.630Z,18.6
2018-08-30T10:00:22.450Z,18.5
2018-08-30T10:05:24.546Z,18.4
2018-08-30T10:10:27.049Z,18.8
2018-08-30T10:15:29.444Z,19.2
2018-08-30T10:20:31.871Z,19.4
2018-08-30T10:25:34.355Z,19
2018-08-30T10:30:36.824Z,18.6
2018-08-30T10:35:39.297Z,18.4
2018-08-30T10:40:41.739Z,18.8
2018-08-30T10:45:44.196Z,19.8
2018-08-30T10:50:46.617Z,20.7
2018-08-30T10:55:49.286Z,21.1
2018-08-30T11:00:51.833Z,21
2018-08-30T11:05:54.025Z,20.4
2018-08-30T11:15:59.013Z,19.2
2018-08-30T11:21:01.498Z,18.7
2018-08-30T11:26:03.934Z,18.4
2018-08-30T11:31:06.316Z,18.2
2018-08-30T11:36:08.809Z,18.1
2018-08-30T11:41:12.728Z,18
2018-08-30T11:46:13.658Z,17.9
2018-08-30T11:51:16.285Z,17.7
2018-08-30T11:56:19.118Z,17.6
2018-08-30T12:01:21.112Z,17.5
2018-08-30T12:06:23.514Z,17.4
2018-08-30T12:11:26.252Z,17.3
2018-08-30T12:16:28.766Z,17.3
2018-08-30T12:21:30.906Z,17.2
2018-08-30T12:26:33.340Z,17.2
2018-08-30T12:31:36.309Z,17.2
2018-08-30T12:36:38.328Z,16.9
2018-08-30T12:41:40.970Z,16.7
2018-08-30T12:46:43.254Z,16.6
2018-08-30T12:51:46.783Z,16.6
2018-08-30T12:56:48.514Z,16.7
2018-08-30T13:01:50.818Z,16.8
2018-08-30T13:06:53.203Z,16.9
2018-08-30T13:11:56.040Z,17.1
2018-08-30T13:16:58.356Z,17.4
2018-08-30T13:22:01.067Z,17.5
2018-08-30T13:27:03.277Z,17.6
2018-08-30T13:32:05.895Z,17.6
2018-08-30T13:37:08.392Z,17.6
2018-08-30T13:42:11.434Z,17.7
2018-08-30T13:47:13.192Z,17.7
2018-08-30T13:52:15.671Z,17.7
2018-08-30T13:57:18.174Z,17.8
2018-08-30T14:02:21.120Z,17.8
2018-08-30T14:07:22.755Z,17.4
2018-08-30T14:12:25.572Z,17.2
2018-08-30T14:17:27.409Z,17.1
2018-08-30T14:22:30.004Z,16.9
2018-08-30T14:27:32.430Z,16.8
2018-08-30T14:32:34.794Z,16.7
2018-08-30T14:37:37.315Z,16.7
2018-08-30T14:42:40.122Z,16.8
2018-08-30T14:47:42.394Z,17
2018-08-30T14:52:44.634Z,17
2018-08-30T14:57:47.105Z,17
2018-08-30T15:02:49.665Z,16.9
2018-08-30T15:07:52.927Z,16.9
2018-08-30T15:12:54.610Z,16.9
2018-08-30T15:17:57.017Z,17.1
2018-08-30T15:22:59.500Z,17.6
2018-08-30T15:28:01.856Z,18.6
2018-08-30T15:33:04.457Z,19.3
2018-08-30T15:38:06.818Z,19.5
2018-08-30T15:43:09.223Z,19.4
2018-08-30T15:48:11.751Z,19.4
2018-08-30T15:53:14.345Z,19.5
2018-08-30T15:58:16.632Z,19.5
2018-08-30T16:03:19.048Z,19.5
2018-08-30T16:08:21.901Z,19.5
2018-08-30T16:13:23.965Z,19.7
2018-08-30T16:18:26.709Z,19.7
2018-08-30T16:23:28.875Z,19.6
2018-08-30T16:28:31.429Z,19.3
2018-08-30T16:33:33.858Z,19
2018-08-30T16:38:36.256Z,18.7
2018-08-30T16:43:38.866Z,18.4
2018-08-30T16:48:41.280Z,18.3
2018-08-30T16:53:44.635Z,18.2
2018-08-30T16:58:46.222Z,18.1
2018-08-30T17:03:48.602Z,18.1
2018-08-30T17:08:51.051Z,18
2018-08-30T17:13:53.477Z,18
2018-08-30T17:18:56.016Z,17.9
2018-08-30T17:23:58.397Z,17.8
2018-08-30T17:29:00.881Z,17.7
2018-08-30T17:39:05.765Z,17.4
2018-08-30T17:44:08.210Z,17.2
2018-08-30T17:49:10.669Z,16.9
2018-08-30T17:54:14.101Z,16.6
2018-08-30T17:59:15.669Z,16.4
2018-08-30T18:04:18.157Z,16.4
2018-08-30T18:09:20.516Z,16.3
2018-08-30T18:14:23.053Z,16.3
2018-08-30T18:19:25.439Z,16.3
2018-08-30T18:24:28.051Z,16.3
2018-08-30T18:29:30.401Z,16.2
2018-08-30T18:34:32.972Z,16.2
2018-08-30T18:39:35.549Z,16.2
2018-08-30T18:44:37.721Z,16.2
2018-08-30T18:49:41.081Z,16.1
2018-08-30T18:54:42.626Z,16
2018-08-30T18:59:45.226Z,16
2018-08-30T19:04:52.965Z,16
2018-08-30T19:09:50.246Z,15.9
2018-08-30T19:14:54.312Z,15.9
2018-08-30T19:19:55.307Z,15.8
2018-08-30T19:24:57.415Z,15.8
2018-08-30T19:29:59.823Z,15.6
2018-08-30T19:35:02.349Z,15.5
2018-08-30T19:40:04.792Z,15.5
2018-08-30T19:45:07.474Z,15.5
2018-08-30T19:50:09.740Z,15.5
2018-08-30T19:55:12.146Z,15.5
2018-08-30T20:00:14.615Z,15.5
2018-08-30T20:05:17.039Z,15.5
2018-08-30T20:10:19.895Z,15.6
2018-08-30T20:15:22.015Z,15.5
2018-08-30T20:20:24.786Z,15.5
2018-08-30T20:25:26.885Z,15.5
2018-08-30T20:30:29.451Z,15.5
2018-08-30T20:35:31.838Z,15.2
2018-08-30T20:40:34.243Z,15.2
2018-08-30T20:45:36.799Z,15.3
2018-08-30T20:50:39.183Z,15.4
2018-08-30T20:55:41.623Z,15.5
2018-08-30T21:00:44.228Z,15.5
2018-08-30T21:05:46.809Z,15.5
2018-08-30T21:10:49.006Z,15.5
2018-08-30T21:15:51.491Z,15.4
2018-08-30T21:20:54.012Z,15.4
2018-08-30T21:25:56.373Z,15.3
2018-08-30T21:30:58.909Z,15.4
2018-08-30T21:36:01.307Z,15.4
2018-08-30T21:41:03.817Z,15.3
2018-08-30T21:46:06.223Z,15.2
2018-08-30T21:51:08.659Z,15.3
2018-08-30T21:56:11.177Z,15.4
2018-08-30T22:01:13.577Z,15.2
2018-08-30T22:06:16.180Z,15.1
2018-08-30T22:11:18.528Z,14.9
2018-08-30T22:16:21.188Z,14.6
2018-08-30T22:21:23.400Z,14.4
2018-08-30T22:26:26.106Z,14.2
2018-08-30T22:31:28.406Z,14
2018-08-30T22:36:31.127Z,13.8
2018-08-30T22:41:33.329Z,13.6
2018-08-30T22:46:36.101Z,13.5
2018-08-30T22:51:38.292Z,13.6
2018-08-30T22:56:40.730Z,13.6
2018-08-30T23:01:43.502Z,13.6
2018-08-30T23:06:45.737Z,13.6
2018-08-30T23:11:47.994Z,13.7
2018-08-30T23:16:50.489Z,13.6
2018-08-30T23:21:52.928Z,13.7
2018-08-30T23:26:55.383Z,13.7
2018-08-30T23:31:57.820Z,13.7
2018-08-30T23:37:00.364Z,13.8
2018-08-30T23:42:03.175Z,13.9
2018-08-30T23:47:05.217Z,14
2018-08-30T23:52:07.654Z,14
2018-08-30T23:57:10.118Z,14.1
